Pagrindinis puslapis
METAR-TAF:

METAR-TAF

Oro uostai :

Teheranas, Iranas

platuma: 35-41N, ilguma: 051-21E, Aukštis: 1204 m

Dabartinis oras

Ataskaita buvo paskelbta 39 minutes, ne 22:30 UTC
Vėjas 6 kt iš Šiaurės
Temperatūra 25°C
Drėgmė 24%
Slėgis 1017 hPa
Matomumas 10 km arba daugiau
nėra debesų žemiau 1500 m ir nėra kamuolinių lietaus debesų

METAR: OIII 192230Z 36006KT CAVOK 25/03 Q1016 A3002

Laikas: 03:39 (23:09 UTC)

Prognozė

Ataskaita buvo paskelbta 5 valandos ir 49 minutes, ne 17:20 UTC
Prognozė galioja nuo 19 metu 18 UTC su 20 metu 24 UTC
Vėjas 6 kt iš Šiaurės
Matomumas 10 km arba daugiau
nėra debesų žemiau 1500 m ir nėra kamuolinių lietaus debesų
Tapsmas
nuo 20 metu 08 UTC su 20 metu 10 UTC
Vėjas 8 kt iš Pietų/Pietryčių

TAF: OIII 191720Z 1918/2024 36006KT CAVOK BECMG 2008/2010 15008KT

Orai ataskaitas ir orų prognozės (METAR, TAF).

turimą stotys yra geltonos ir raudonos taškus žemėlapyje.

Perkelti pele per norėdami pamatyti stoties vardą.

Tada spustelėkite, norėdami matyti oro stebėjimo ir prognozės.

Norėdami pakeisti žemėlapį: spustelėkite ant žalios mygtukų su juodo kryžiaus žemyn,; žalią mygtuką su brūkšneliu, jei norite nutolinti; arba žalių rodyklių gretimoms žemėlapius.


METAR-TAF: